createdAt,value
2022-11-07T00:01:23.460Z,14.42
2022-11-07T00:03:53.698Z,14.21
2022-11-07T00:06:20.386Z,14.57
2022-11-07T00:08:47.028Z,14.82
2022-11-07T00:11:13.689Z,14.91
2022-11-07T00:13:40.315Z,14.83
2022-11-07T00:16:08.977Z,14.92
2022-11-07T00:18:35.948Z,15.06
2022-11-07T00:21:03.762Z,15.04
2022-11-07T00:23:30.651Z,14.90
2022-11-07T00:26:05.434Z,14.75
2022-11-07T00:28:39.899Z,14.37
2022-11-07T00:31:08.085Z,13.91
2022-11-07T00:33:35.254Z,13.85
2022-11-07T00:36:02.488Z,14.12
2022-11-07T00:38:29.108Z,14.17
2022-11-07T00:40:56.287Z,14.43
2022-11-07T00:43:23.866Z,14.33
2022-11-07T00:45:50.665Z,13.98
2022-11-07T00:48:18.078Z,14.12
2022-11-07T00:50:44.657Z,14.31
2022-11-07T00:53:11.440Z,14.52
2022-11-07T00:55:38.274Z,14.64
2022-11-07T00:58:08.656Z,14.80
2022-11-07T01:00:39.289Z,14.62
2022-11-07T01:03:24.176Z,14.55
2022-11-07T01:06:02.419Z,14.55
2022-11-07T01:08:29.432Z,14.37
2022-11-07T01:10:56.331Z,14.48
2022-11-07T01:13:24.483Z,14.48
2022-11-07T01:15:51.995Z,14.55
2022-11-07T01:18:18.665Z,14.46
2022-11-07T01:20:45.365Z,14.03
2022-11-07T01:23:12.229Z,13.76
2022-11-07T01:25:40.014Z,13.81
2022-11-07T01:28:07.418Z,13.83
2022-11-07T01:30:37.545Z,14.01
2022-11-07T01:33:04.349Z,13.87
2022-11-07T01:35:32.990Z,12.59
2022-11-07T01:37:59.653Z,12.95
2022-11-07T01:40:26.631Z,13.01
2022-11-07T01:42:53.305Z,13.06
2022-11-07T01:45:24.143Z,13.06
2022-11-07T01:47:53.325Z,12.80
2022-11-07T01:50:21.379Z,12.90
2022-11-07T01:52:52.432Z,13.55
2022-11-07T01:55:27.382Z,13.78
2022-11-07T01:58:08.360Z,13.52
2022-11-07T02:00:35.714Z,13.12
2022-11-07T02:03:11.781Z,12.84
2022-11-07T02:05:44.346Z,13.22
2022-11-07T02:08:14.091Z,13.53
2022-11-07T02:10:42.016Z,13.71
2022-11-07T02:13:09.268Z,13.68
2022-11-07T02:15:36.854Z,13.82
2022-11-07T02:18:03.874Z,13.12
2022-11-07T02:20:30.511Z,12.92
2022-11-07T02:23:26.678Z,12.64
2022-11-07T02:25:54.332Z,13.05
2022-11-07T02:28:23.837Z,13.61
2022-11-07T02:30:50.471Z,13.61
2022-11-07T02:33:21.742Z,13.25
2022-11-07T02:35:51.076Z,13.22
2022-11-07T02:38:22.676Z,13.63
2022-11-07T02:40:58.514Z,13.64
2022-11-07T02:43:29.415Z,13.71
2022-11-07T02:45:59.039Z,13.58
2022-11-07T02:48:29.999Z,13.36
2022-11-07T02:50:56.904Z,13.65
2022-11-07T02:53:23.927Z,13.74
2022-11-07T02:55:50.595Z,12.93
2022-11-07T02:58:17.404Z,12.75
2022-11-07T03:00:44.062Z,12.92
2022-11-07T03:03:10.814Z,13.18
2022-11-07T03:05:37.648Z,13.34
2022-11-07T03:08:04.516Z,13.14
2022-11-07T03:10:31.173Z,13.31
2022-11-07T03:12:57.734Z,13.18
2022-11-07T03:15:24.375Z,12.95
2022-11-07T03:17:51.006Z,13.38
2022-11-07T03:20:17.616Z,13.13
2022-11-07T03:22:44.242Z,13.17
2022-11-07T03:25:10.885Z,12.75
2022-11-07T03:27:46.467Z,12.86
2022-11-07T03:30:13.738Z,12.92
2022-11-07T03:32:40.427Z,12.93
2022-11-07T03:35:07.723Z,12.94
2022-11-07T03:37:34.402Z,13.00
2022-11-07T03:40:01.014Z,13.16
2022-11-07T03:42:27.718Z,13.03
2022-11-07T03:44:54.291Z,12.54
2022-11-07T03:47:20.922Z,12.39
2022-11-07T03:49:47.596Z,12.42
2022-11-07T03:52:14.211Z,12.26
2022-11-07T03:54:40.841Z,12.15
2022-11-07T03:57:07.505Z,12.07
2022-11-07T03:59:34.144Z,12.40
2022-11-07T04:02:00.830Z,12.24
2022-11-07T04:04:27.477Z,12.54
2022-11-07T04:06:55.284Z,12.76
2022-11-07T04:09:21.957Z,12.45
2022-11-07T04:12:07.389Z,12.45
2022-11-07T04:14:53.914Z,12.33
2022-11-07T04:17:20.793Z,12.38
2022-11-07T04:19:50.057Z,12.57
2022-11-07T04:22:17.271Z,12.72
2022-11-07T04:24:46.095Z,12.89
2022-11-07T04:27:33.329Z,12.60
2022-11-07T04:30:21.620Z,12.58
2022-11-07T04:32:50.434Z,12.34
2022-11-07T04:35:17.975Z,12.57
2022-11-07T04:37:47.947Z,12.64
2022-11-07T04:40:16.111Z,12.85
2022-11-07T04:42:43.340Z,12.65
2022-11-07T04:45:10.926Z,12.19
2022-11-07T04:47:40.347Z,11.69
2022-11-07T04:50:09.945Z,12.29
2022-11-07T04:52:37.018Z,12.16
2022-11-07T04:55:04.035Z,11.68
2022-11-07T04:57:30.701Z,11.82
2022-11-07T04:59:57.400Z,11.95
2022-11-07T05:02:27.910Z,11.83
2022-11-07T05:04:54.606Z,12.02
2022-11-07T05:07:21.624Z,12.09
2022-11-07T05:09:48.337Z,12.06
2022-11-07T05:12:18.121Z,12.53
2022-11-07T05:14:44.722Z,12.54
2022-11-07T05:17:15.265Z,12.55
2022-11-07T05:19:44.847Z,12.62
2022-11-07T05:22:30.973Z,12.08
2022-11-07T05:24:58.171Z,11.94
2022-11-07T05:27:25.219Z,12.31
2022-11-07T05:29:52.058Z,12.75
2022-11-07T05:32:19.129Z,12.94
2022-11-07T05:34:45.793Z,13.13
2022-11-07T05:37:13.550Z,13.27
2022-11-07T05:39:40.097Z,12.96
2022-11-07T05:42:07.526Z,12.55
2022-11-07T05:44:34.204Z,12.57
2022-11-07T05:47:01.614Z,12.56
2022-11-07T05:49:28.512Z,12.56
2022-11-07T05:51:55.455Z,13.06
2022-11-07T05:54:22.137Z,13.17
2022-11-07T05:56:48.730Z,13.52
2022-11-07T05:59:15.459Z,13.85
2022-11-07T06:01:42.274Z,13.37
2022-11-07T06:04:09.265Z,13.13
2022-11-07T06:06:36.024Z,13.29
2022-11-07T06:09:02.912Z,13.29
2022-11-07T06:11:30.815Z,13.45
2022-11-07T06:13:57.384Z,13.49
2022-11-07T06:16:24.886Z,13.61
2022-11-07T06:18:51.500Z,13.86
2022-11-07T06:21:18.069Z,14.08
2022-11-07T06:23:44.745Z,14.37
2022-11-07T06:26:11.329Z,14.49
2022-11-07T06:28:38.162Z,14.44
2022-11-07T06:31:05.352Z,14.63
2022-11-07T06:33:32.527Z,14.51
2022-11-07T06:36:11.414Z,14.37
2022-11-07T06:38:39.335Z,14.39
2022-11-07T06:41:14.525Z,14.41
2022-11-07T06:43:41.550Z,14.63
2022-11-07T06:46:11.968Z,14.58
2022-11-07T06:48:39.326Z,14.49
2022-11-07T06:51:07.803Z,14.54
2022-11-07T06:53:34.460Z,14.88
2022-11-07T06:56:02.649Z,14.87
2022-11-07T06:58:29.763Z,14.42
2022-11-07T07:01:04.755Z,14.45
2022-11-07T07:03:31.612Z,14.12
2022-11-07T07:06:02.937Z,14.41
2022-11-07T07:08:30.264Z,14.70
2022-11-07T07:10:57.218Z,14.82
2022-11-07T07:13:23.926Z,14.82
2022-11-07T07:15:55.136Z,14.69
2022-11-07T07:18:22.710Z,14.64
2022-11-07T07:20:50.290Z,14.63
2022-11-07T07:23:18.457Z,14.55
2022-11-07T07:25:46.582Z,15.01
2022-11-07T07:28:13.429Z,14.92
2022-11-07T07:30:40.010Z,15.49
2022-11-07T07:33:06.631Z,15.99
2022-11-07T07:35:33.785Z,15.65
2022-11-07T07:38:00.402Z,15.53
2022-11-07T07:40:27.044Z,15.64
2022-11-07T07:42:53.701Z,15.85
2022-11-07T07:45:20.412Z,15.81
2022-11-07T07:47:47.078Z,15.15
2022-11-07T07:50:14.067Z,15.16
2022-11-07T07:52:41.086Z,15.46
2022-11-07T07:55:09.454Z,15.88
2022-11-07T07:57:43.291Z,15.52
2022-11-07T08:00:12.129Z,15.54
2022-11-07T08:02:39.265Z,15.66
2022-11-07T08:05:06.490Z,15.70
2022-11-07T08:07:33.053Z,15.80
2022-11-07T08:10:09.797Z,15.03
2022-11-07T08:12:51.953Z,14.76
2022-11-07T08:15:20.309Z,15.77
2022-11-07T08:17:47.038Z,16.07
2022-11-07T08:20:15.864Z,15.96
2022-11-07T08:22:42.581Z,16.25
2022-11-07T08:25:11.558Z,16.49
2022-11-07T08:27:38.538Z,16.13
2022-11-07T08:30:07.484Z,15.65
2022-11-07T08:32:34.457Z,15.53
2022-11-07T08:35:01.167Z,14.98
2022-11-07T08:37:27.726Z,15.79
2022-11-07T08:39:54.290Z,16.03
2022-11-07T08:42:20.932Z,16.16
2022-11-07T08:44:47.481Z,16.48
2022-11-07T08:47:14.122Z,16.37
2022-11-07T08:49:40.732Z,16.11
2022-11-07T08:52:07.550Z,16.41
2022-11-07T08:54:34.248Z,16.63
2022-11-07T08:57:00.971Z,16.59
2022-11-07T08:59:29.348Z,16.81
2022-11-07T09:02:38.900Z,17.06
2022-11-07T09:04:43.080Z,16.16
2022-11-07T09:07:09.822Z,16.17
2022-11-07T09:09:36.540Z,16.80
2022-11-07T09:12:03.388Z,16.19
2022-11-07T09:14:30.194Z,16.55
2022-11-07T09:16:58.298Z,16.37
2022-11-07T09:19:24.997Z,16.71
2022-11-07T09:21:51.723Z,16.64
2022-11-07T09:24:18.538Z,17.19
2022-11-07T09:26:45.268Z,17.28
2022-11-07T09:29:11.964Z,17.68
2022-11-07T09:31:38.679Z,17.17
2022-11-07T09:34:07.496Z,16.66
2022-11-07T09:36:34.226Z,16.97
2022-11-07T09:39:01.265Z,17.19
2022-11-07T09:41:36.951Z,17.15
2022-11-07T09:44:37.340Z,17.46
2022-11-07T09:47:14.743Z,16.93
2022-11-07T09:49:46.607Z,16.82
2022-11-07T09:52:38.670Z,16.89
2022-11-07T09:55:20.512Z,16.44
2022-11-07T09:57:49.238Z,16.35
2022-11-07T10:00:23.482Z,16.84
2022-11-07T10:02:54.583Z,16.68
2022-11-07T10:05:27.308Z,16.96
2022-11-07T10:08:16.390Z,17.28
2022-11-07T10:10:58.079Z,17.16
2022-11-07T10:16:42.026Z,17.35
2022-11-07T10:19:08.688Z,17.51
2022-11-07T10:22:05.895Z,17.42
2022-11-07T10:25:11.200Z,17.48
2022-11-07T10:27:39.605Z,17.43
2022-11-07T10:30:19.967Z,17.95
2022-11-07T10:32:49.736Z,18.05
2022-11-07T10:35:48.637Z,17.98
2022-11-07T10:38:22.191Z,17.65
2022-11-07T10:40:50.576Z,17.48
2022-11-07T10:43:35.318Z,17.21
2022-11-07T10:46:11.317Z,17.17
2022-11-07T10:48:38.061Z,17.73
2022-11-07T10:51:04.864Z,17.91
2022-11-07T10:53:31.657Z,17.83
2022-11-07T10:55:59.067Z,17.81
2022-11-07T10:58:29.547Z,17.62
2022-11-07T11:01:02.478Z,17.21
2022-11-07T11:03:43.617Z,17.10
2022-11-07T11:06:17.921Z,17.12
2022-11-07T11:08:46.878Z,16.72
2022-11-07T11:11:32.892Z,16.57
2022-11-07T11:14:10.957Z,17.25
2022-11-07T11:16:40.220Z,17.22
2022-11-07T11:19:25.840Z,17.00
2022-11-07T11:21:56.113Z,17.30
2022-11-07T11:24:30.260Z,17.13
2022-11-07T11:27:04.996Z,17.46
2022-11-07T11:29:46.614Z,17.56
2022-11-07T11:32:35.517Z,17.61
2022-11-07T11:35:14.508Z,17.60
2022-11-07T11:37:45.654Z,17.25
2022-11-07T11:40:17.780Z,17.59
2022-11-07T11:43:04.293Z,17.28
2022-11-07T11:45:42.767Z,17.84
2022-11-07T11:48:24.732Z,18.25
2022-11-07T11:50:58.426Z,18.17
2022-11-07T11:53:25.203Z,17.91
2022-11-07T11:56:07.338Z,17.65
2022-11-07T11:58:59.995Z,17.44
2022-11-07T12:02:00.264Z,17.54
2022-11-07T12:04:54.733Z,17.46
2022-11-07T12:07:34.084Z,17.13
2022-11-07T12:10:07.977Z,17.72
2022-11-07T12:12:37.450Z,17.82
2022-11-07T12:15:22.064Z,17.52
2022-11-07T12:17:56.463Z,17.89
2022-11-07T12:20:25.830Z,18.19
2022-11-07T12:23:25.140Z,17.98
2022-11-07T12:26:18.204Z,17.63
2022-11-07T12:29:37.383Z,17.25
2022-11-07T12:32:06.925Z,17.51
2022-11-07T12:34:52.337Z,17.78
2022-11-07T12:38:00.496Z,17.65
2022-11-07T12:40:37.348Z,18.08
2022-11-07T12:43:24.856Z,17.86
2022-11-07T12:46:05.414Z,18.03
2022-11-07T12:48:53.206Z,17.50
2022-11-07T12:51:45.736Z,17.97
2022-11-07T12:54:33.814Z,17.96
2022-11-07T12:57:06.118Z,18.32
2022-11-07T12:59:45.002Z,18.05
2022-11-07T13:02:52.909Z,17.79
2022-11-07T13:05:22.358Z,18.03
2022-11-07T13:07:53.785Z,17.98
2022-11-07T13:10:56.287Z,17.93
2022-11-07T13:13:29.012Z,17.96
2022-11-07T13:16:20.089Z,18.23
2022-11-07T13:18:46.875Z,18.31
2022-11-07T13:21:13.605Z,18.24
2022-11-07T13:23:40.578Z,18.44
2022-11-07T13:26:32.431Z,18.59
2022-11-07T13:28:59.893Z,18.50
2022-11-07T13:31:32.522Z,18.35
2022-11-07T13:34:17.819Z,18.31
2022-11-07T13:36:46.125Z,18.43
2022-11-07T13:39:14.785Z,18.20
2022-11-07T13:41:44.711Z,18.50
2022-11-07T13:44:28.036Z,18.44
2022-11-07T13:46:57.413Z,18.58
2022-11-07T13:49:44.609Z,18.56
2022-11-07T13:52:21.116Z,18.39
2022-11-07T13:54:57.297Z,18.54
2022-11-07T13:57:31.698Z,18.42
2022-11-07T14:00:05.201Z,18.46
2022-11-07T14:02:35.466Z,18.48
2022-11-07T14:05:21.291Z,18.48
2022-11-07T14:07:52.471Z,18.47
2022-11-07T14:10:47.263Z,18.30
2022-11-07T14:13:39.644Z,18.29
2022-11-07T14:16:21.798Z,18.24
2022-11-07T14:19:02.305Z,18.29
2022-11-07T14:21:37.443Z,18.22
2022-11-07T14:24:28.913Z,18.13
2022-11-07T14:27:11.575Z,18.10
2022-11-07T14:29:38.291Z,18.05
2022-11-07T14:32:07.469Z,18.07
2022-11-07T14:34:36.198Z,18.04
2022-11-07T14:37:06.879Z,17.95
2022-11-07T14:39:33.961Z,17.98
2022-11-07T14:42:03.161Z,17.94
2022-11-07T14:44:47.570Z,17.88
2022-11-07T14:47:20.945Z,17.82
2022-11-07T14:49:50.714Z,17.79
2022-11-07T14:52:19.501Z,17.70
2022-11-07T14:54:47.571Z,17.76
2022-11-07T14:57:14.985Z,17.67
2022-11-07T14:59:42.567Z,17.65
2022-11-07T15:02:12.455Z,17.55
2022-11-07T15:04:47.325Z,17.45
2022-11-07T15:07:33.873Z,17.42
2022-11-07T15:10:14.596Z,17.31
2022-11-07T15:12:52.980Z,17.27
2022-11-07T15:15:21.145Z,17.34
2022-11-07T15:17:51.103Z,17.29
2022-11-07T15:20:24.676Z,17.19
2022-11-07T15:22:51.429Z,17.12
2022-11-07T15:25:26.514Z,17.05
2022-11-07T15:27:53.899Z,17.10
2022-11-07T15:30:34.092Z,17.04
2022-11-07T15:33:00.869Z,16.98
2022-11-07T15:35:43.543Z,17.02
2022-11-07T15:38:20.644Z,16.94
2022-11-07T15:40:47.852Z,17.00
2022-11-07T15:43:15.104Z,17.01
2022-11-07T15:45:42.913Z,16.92
2022-11-07T15:48:16.601Z,16.85
2022-11-07T15:50:45.731Z,16.88
2022-11-07T15:53:18.209Z,16.76
2022-11-07T15:55:45.153Z,16.01
2022-11-07T15:58:15.420Z,15.95
2022-11-07T16:00:47.656Z,16.05
2022-11-07T16:03:16.801Z,16.37
2022-11-07T16:05:48.911Z,16.49
2022-11-07T16:08:21.351Z,16.27
2022-11-07T16:10:54.975Z,16.45
2022-11-07T16:13:21.755Z,16.52
2022-11-07T16:15:55.812Z,16.46
2022-11-07T16:18:22.811Z,16.13
2022-11-07T16:20:50.716Z,16.24
2022-11-07T16:23:20.881Z,16.31
2022-11-07T16:25:50.213Z,16.37
2022-11-07T16:28:17.224Z,16.27
2022-11-07T16:30:44.239Z,16.13
2022-11-07T16:33:12.714Z,16.22
2022-11-07T16:35:40.811Z,16.22
2022-11-07T16:38:16.514Z,16.08
2022-11-07T16:40:43.772Z,16.06
2022-11-07T16:43:10.933Z,16.15
2022-11-07T16:45:43.604Z,16.21
2022-11-07T16:48:18.989Z,16.03
2022-11-07T16:50:46.436Z,16.17
2022-11-07T16:53:13.732Z,16.20
2022-11-07T16:55:45.535Z,16.30
2022-11-07T16:58:29.533Z,15.99
2022-11-07T17:00:59.540Z,16.05
2022-11-07T17:03:26.624Z,15.93
2022-11-07T17:05:55.249Z,16.08
2022-11-07T17:08:26.805Z,16.07
2022-11-07T17:10:53.783Z,16.13
2022-11-07T17:13:22.376Z,16.06
2022-11-07T17:15:49.920Z,16.11
2022-11-07T17:18:21.562Z,16.03
2022-11-07T17:20:51.716Z,16.06
2022-11-07T17:23:18.920Z,16.07
2022-11-07T17:25:50.884Z,15.78
2022-11-07T17:28:17.878Z,15.80
2022-11-07T17:30:52.173Z,15.89
2022-11-07T17:33:18.897Z,15.81
2022-11-07T17:36:02.622Z,15.67
2022-11-07T17:38:40.945Z,15.49
2022-11-07T17:41:17.857Z,15.63
2022-11-07T17:43:50.213Z,15.71
2022-11-07T17:46:22.287Z,15.76
2022-11-07T17:49:17.214Z,15.47
2022-11-07T17:51:44.429Z,15.47
2022-11-07T17:54:13.281Z,15.53
2022-11-07T17:56:41.626Z,15.54
2022-11-07T17:59:12.898Z,15.40
2022-11-07T18:01:40.779Z,15.64
2022-11-07T18:04:09.599Z,15.67
2022-11-07T18:07:11.972Z,15.39
2022-11-07T18:09:40.479Z,15.55
2022-11-07T18:12:19.448Z,15.65
2022-11-07T18:14:50.426Z,15.73
2022-11-07T18:17:17.136Z,15.75
2022-11-07T18:19:43.978Z,15.36
2022-11-07T18:22:10.695Z,15.42
2022-11-07T18:24:37.939Z,15.64
2022-11-07T18:27:09.296Z,15.64
2022-11-07T18:29:37.127Z,15.70
2022-11-07T18:32:03.898Z,15.65
2022-11-07T18:34:51.210Z,15.61
2022-11-07T18:37:18.862Z,15.52
2022-11-07T18:39:45.578Z,15.55
2022-11-07T18:42:12.186Z,15.42
2022-11-07T18:44:38.975Z,15.08
2022-11-07T18:47:05.651Z,15.01
2022-11-07T18:49:32.291Z,15.07
2022-11-07T18:51:58.896Z,15.27
2022-11-07T18:54:26.335Z,15.24
2022-11-07T18:56:52.972Z,15.20
2022-11-07T18:59:19.673Z,15.05
2022-11-07T19:01:46.538Z,15.23
2022-11-07T19:04:13.226Z,15.30
2022-11-07T19:06:55.773Z,15.47
2022-11-07T19:09:28.935Z,15.26
2022-11-07T19:11:56.750Z,15.10
2022-11-07T19:14:23.920Z,15.07
2022-11-07T19:16:50.614Z,15.16
2022-11-07T19:19:17.306Z,15.28
2022-11-07T19:21:44.230Z,15.26
2022-11-07T19:24:12.805Z,15.39
2022-11-07T19:26:39.662Z,15.29
2022-11-07T19:29:09.941Z,15.27
2022-11-07T19:31:37.284Z,15.34
2022-11-07T19:34:04.484Z,15.39
2022-11-07T19:36:31.637Z,15.45
2022-11-07T19:38:58.422Z,15.53
2022-11-07T19:41:25.000Z,15.52
2022-11-07T19:43:51.658Z,15.64
2022-11-07T19:46:21.241Z,15.70
2022-11-07T19:48:49.084Z,15.69
2022-11-07T19:51:21.539Z,15.76
2022-11-07T19:53:56.607Z,15.68
2022-11-07T19:56:25.114Z,15.68
2022-11-07T19:58:51.830Z,15.65
2022-11-07T20:01:21.077Z,15.70
2022-11-07T20:03:50.248Z,15.72
2022-11-07T20:06:20.323Z,15.76
2022-11-07T20:08:47.651Z,15.73
2022-11-07T20:11:15.824Z,15.74
2022-11-07T20:13:43.410Z,15.65
2022-11-07T20:16:10.578Z,15.42
2022-11-07T20:18:38.425Z,15.12
2022-11-07T20:21:12.918Z,15.17
2022-11-07T20:23:43.417Z,14.84
2022-11-07T20:26:45.402Z,14.83
2022-11-07T20:29:13.723Z,14.57
2022-11-07T20:31:41.794Z,14.67
2022-11-07T20:34:08.713Z,14.85
2022-11-07T20:37:05.662Z,14.92
2022-11-07T20:39:32.301Z,14.83
2022-11-07T20:41:59.100Z,14.82
2022-11-07T20:44:28.179Z,14.91
2022-11-07T20:46:56.628Z,15.12
2022-11-07T20:49:23.286Z,15.03
2022-11-07T20:51:52.002Z,15.06
2022-11-07T20:54:20.812Z,15.22
2022-11-07T20:56:47.527Z,15.28
2022-11-07T20:59:14.127Z,15.43
2022-11-07T21:01:40.866Z,15.48
2022-11-07T21:05:03.336Z,15.18
2022-11-07T21:07:29.611Z,15.21
2022-11-07T21:10:15.304Z,15.26
2022-11-07T21:12:42.901Z,15.51
2022-11-07T21:15:10.647Z,15.41
2022-11-07T21:17:40.202Z,15.34
2022-11-07T21:20:07.579Z,15.44
2022-11-07T21:22:36.952Z,15.40
2022-11-07T21:25:12.462Z,15.31
2022-11-07T21:27:39.033Z,15.35
2022-11-07T21:30:06.812Z,15.40
2022-11-07T21:32:34.551Z,14.99
2022-11-07T21:35:01.314Z,15.00
2022-11-07T21:37:31.931Z,14.92
2022-11-07T21:39:58.504Z,15.20
2022-11-07T21:42:27.796Z,15.33
2022-11-07T21:44:57.239Z,15.36
2022-11-07T21:47:24.010Z,15.40
2022-11-07T21:49:50.671Z,15.52
2022-11-07T21:52:17.364Z,15.47
2022-11-07T21:54:47.379Z,15.37
2022-11-07T21:57:14.009Z,15.39
2022-11-07T21:59:40.621Z,15.47
2022-11-07T22:02:26.361Z,15.48
2022-11-07T22:04:53.098Z,15.24
2022-11-07T22:07:19.696Z,14.54
2022-11-07T22:09:46.402Z,14.41
2022-11-07T22:12:13.396Z,14.59
2022-11-07T22:14:39.969Z,14.81
2022-11-07T22:17:06.655Z,15.11
2022-11-07T22:19:36.091Z,14.94
2022-11-07T22:22:03.696Z,15.08
2022-11-07T22:24:30.770Z,15.24
2022-11-07T22:26:57.434Z,15.30
2022-11-07T22:29:24.121Z,15.21
2022-11-07T22:31:50.716Z,15.14
2022-11-07T22:34:17.417Z,15.20
2022-11-07T22:36:44.027Z,15.27
2022-11-07T22:39:10.630Z,15.16
2022-11-07T22:41:37.332Z,15.24
2022-11-07T22:44:04.091Z,15.23
2022-11-07T22:46:31.333Z,15.36
2022-11-07T22:48:59.576Z,15.45
2022-11-07T22:51:31.974Z,15.37
2022-11-07T22:54:05.932Z,15.34
2022-11-07T22:56:35.295Z,15.18
2022-11-07T22:59:02.652Z,14.77
2022-11-07T23:01:37.178Z,14.93
2022-11-07T23:04:04.911Z,15.09
2022-11-07T23:06:31.940Z,15.09
2022-11-07T23:08:59.756Z,15.15
2022-11-07T23:11:51.309Z,15.22
2022-11-07T23:14:21.323Z,15.23
2022-11-07T23:16:50.778Z,15.29
2022-11-07T23:19:19.887Z,15.19
2022-11-07T23:21:46.808Z,14.79
2022-11-07T23:24:14.252Z,14.79
2022-11-07T23:26:41.180Z,14.79
2022-11-07T23:29:13.494Z,14.87
2022-11-07T23:31:41.519Z,14.93
2022-11-07T23:34:08.387Z,14.77
2022-11-07T23:36:35.381Z,14.48
2022-11-07T23:39:07.311Z,14.78
2022-11-07T23:41:34.866Z,14.93
2022-11-07T23:44:02.021Z,15.11
2022-11-07T23:46:47.517Z,15.12
2022-11-07T23:49:32.788Z,15.01
2022-11-07T23:51:59.408Z,15.12
2022-11-07T23:54:44.873Z,15.09
2022-11-07T23:57:11.503Z,15.10
2022-11-07T23:59:56.715Z,15.13
